sensor_id;sensor_type;location;lat;lon;timestamp;pressure;altitude;pressure_sealevel;temperature;humidity
71974;BME280;59840;52.122;5.404;2023-02-04T00:02:00;103381.16;;;7.29;85.64
71974;BME280;59840;52.122;5.404;2023-02-04T00:04:27;103380.50;;;7.27;85.89
71974;BME280;59840;52.122;5.404;2023-02-04T00:06:54;103388.38;;;7.27;85.92
71974;BME280;59840;52.122;5.404;2023-02-04T00:09:20;103385.91;;;7.26;85.86
71974;BME280;59840;52.122;5.404;2023-02-04T00:11:47;103388.03;;;7.22;86.11
71974;BME280;59840;52.122;5.404;2023-02-04T00:14:13;103389.03;;;7.21;86.41
71974;BME280;59840;52.122;5.404;2023-02-04T00:16:40;103387.84;;;7.16;86.45
71974;BME280;59840;52.122;5.404;2023-02-04T00:19:06;103392.44;;;7.14;86.77
71974;BME280;59840;52.122;5.404;2023-02-04T00:21:33;103409.16;;;7.13;86.76
71974;BME280;59840;52.122;5.404;2023-02-04T00:23:59;103408.50;;;7.11;87.10
71974;BME280;59840;52.122;5.404;2023-02-04T00:26:26;103409.31;;;7.11;86.95
71974;BME280;59840;52.122;5.404;2023-02-04T00:28:52;103408.50;;;7.11;87.46
71974;BME280;59840;52.122;5.404;2023-02-04T00:31:19;103412.25;;;7.08;87.74
71974;BME280;59840;52.122;5.404;2023-02-04T00:33:46;103411.59;;;7.06;87.87
71974;BME280;59840;52.122;5.404;2023-02-04T00:36:12;103418.81;;;7.04;88.16
71974;BME280;59840;52.122;5.404;2023-02-04T00:38:39;103420.44;;;7.05;88.25
71974;BME280;59840;52.122;5.404;2023-02-04T00:41:05;103415.19;;;7.05;88.37
71974;BME280;59840;52.122;5.404;2023-02-04T00:43:32;103414.53;;;7.03;88.81
71974;BME280;59840;52.122;5.404;2023-02-04T00:45:59;103424.06;;;7.04;88.78
71974;BME280;59840;52.122;5.404;2023-02-04T00:48:25;103416.81;;;6.98;88.98
71974;BME280;59840;52.122;5.404;2023-02-04T00:50:52;103416.28;;;6.94;88.83
71974;BME280;59840;52.122;5.404;2023-02-04T00:53:19;103422.34;;;6.87;89.20
71974;BME280;59840;52.122;5.404;2023-02-04T00:55:46;103420.19;;;6.82;89.59
71974;BME280;59840;52.122;5.404;2023-02-04T00:58:12;103418.84;;;6.78;90.12
71974;BME280;59840;52.122;5.404;2023-02-04T01:00:39;103420.28;;;6.72;90.42
71974;BME280;59840;52.122;5.404;2023-02-04T01:03:05;103424.72;;;6.72;90.24
71974;BME280;59840;52.122;5.404;2023-02-04T01:05:32;103423.22;;;6.69;90.59
71974;BME280;59840;52.122;5.404;2023-02-04T01:07:59;103415.97;;;6.63;90.47
71974;BME280;59840;52.122;5.404;2023-02-04T01:10:25;103431.38;;;6.58;90.89
71974;BME280;59840;52.122;5.404;2023-02-04T01:12:52;103434.78;;;6.59;91.08
71974;BME280;59840;52.122;5.404;2023-02-04T01:15:19;103441.50;;;6.53;91.08
71974;BME280;59840;52.122;5.404;2023-02-04T01:17:45;103443.59;;;6.50;91.57
71974;BME280;59840;52.122;5.404;2023-02-04T01:20:12;103446.06;;;6.51;91.70
71974;BME280;59840;52.122;5.404;2023-02-04T01:22:39;103449.53;;;6.52;91.61
71974;BME280;59840;52.122;5.404;2023-02-04T01:25:06;103459.72;;;6.55;91.81
71974;BME280;59840;52.122;5.404;2023-02-04T01:27:32;103452.50;;;6.57;92.15
71974;BME280;59840;52.122;5.404;2023-02-04T01:29:59;103451.34;;;6.59;92.19
71974;BME280;59840;52.122;5.404;2023-02-04T01:32:25;103459.56;;;6.56;92.06
71974;BME280;59840;52.122;5.404;2023-02-04T01:34:52;103458.06;;;6.54;92.47
71974;BME280;59840;52.122;5.404;2023-02-04T01:37:19;103462.47;;;6.53;92.67
71974;BME280;59840;52.122;5.404;2023-02-04T01:39:46;103464.28;;;6.53;92.64
71974;BME280;59840;52.122;5.404;2023-02-04T01:42:12;103471.47;;;6.51;92.66
71974;BME280;59840;52.122;5.404;2023-02-04T01:44:39;103471.63;;;6.49;92.74
71974;BME280;59840;52.122;5.404;2023-02-04T01:47:06;103475.22;;;6.48;93.15
71974;BME280;59840;52.122;5.404;2023-02-04T01:49:32;103477.19;;;6.46;93.07
71974;BME280;59840;52.122;5.404;2023-02-04T01:52:00;103483.69;;;6.42;93.72
71974;BME280;59840;52.122;5.404;2023-02-04T01:54:27;103486.31;;;6.42;94.02
71974;BME280;59840;52.122;5.404;2023-02-04T01:56:53;103488.13;;;6.42;93.89
71974;BME280;59840;52.122;5.404;2023-02-04T01:59:21;103495.84;;;6.43;94.26
71974;BME280;59840;52.122;5.404;2023-02-04T02:01:51;103492.25;;;6.44;94.03
71974;BME280;59840;52.122;5.404;2023-02-04T02:04:30;103500.78;;;6.46;94.21
71974;BME280;59840;52.122;5.404;2023-02-04T02:06:59;103498.16;;;6.46;94.77
71974;BME280;59840;52.122;5.404;2023-02-04T02:09:29;103500.94;;;6.45;94.37
71974;BME280;59840;52.122;5.404;2023-02-04T02:11:59;103500.09;;;6.44;94.84
71974;BME280;59840;52.122;5.404;2023-02-04T02:14:26;103501.09;;;6.43;95.03
71974;BME280;59840;52.122;5.404;2023-02-04T02:16:53;103505.34;;;6.44;95.04
71974;BME280;59840;52.122;5.404;2023-02-04T02:19:26;103502.88;;;6.43;95.20
71974;BME280;59840;52.122;5.404;2023-02-04T02:22:12;103507.31;;;6.42;95.29
71974;BME280;59840;52.122;5.404;2023-02-04T02:24:42;103504.00;;;6.40;95.62
71974;BME280;59840;52.122;5.404;2023-02-04T02:27:09;103509.25;;;6.40;95.90
71974;BME280;59840;52.122;5.404;2023-02-04T02:29:38;103511.19;;;6.38;96.32
71974;BME280;59840;52.122;5.404;2023-02-04T02:32:07;103505.28;;;6.36;95.77
71974;BME280;59840;52.122;5.404;2023-02-04T02:34:34;103512.31;;;6.35;96.00
71974;BME280;59840;52.122;5.404;2023-02-04T02:37:02;103515.91;;;6.34;96.23
71974;BME280;59840;52.122;5.404;2023-02-04T02:39:28;103511.78;;;6.32;96.02
71974;BME280;59840;52.122;5.404;2023-02-04T02:41:56;103500.63;;;6.30;96.21
71974;BME280;59840;52.122;5.404;2023-02-04T02:44:24;103503.69;;;6.25;96.87
71974;BME280;59840;52.122;5.404;2023-02-04T02:46:52;103506.94;;;6.19;96.95
71974;BME280;59840;52.122;5.404;2023-02-04T02:49:20;103497.19;;;6.12;96.84
71974;BME280;59840;52.122;5.404;2023-02-04T02:51:48;103499.72;;;6.03;96.95
71974;BME280;59840;52.122;5.404;2023-02-04T02:54:21;103509.84;;;5.98;97.70
71974;BME280;59840;52.122;5.404;2023-02-04T02:56:50;103512.91;;;5.94;97.79
71974;BME280;59840;52.122;5.404;2023-02-04T02:59:17;103512.22;;;5.92;98.07
71974;BME280;59840;52.122;5.404;2023-02-04T03:01:47;103513.47;;;5.88;98.15
71974;BME280;59840;52.122;5.404;2023-02-04T03:04:14;103513.63;;;5.86;98.70
71974;BME280;59840;52.122;5.404;2023-02-04T03:06:42;103518.47;;;5.81;98.36
71974;BME280;59840;52.122;5.404;2023-02-04T03:09:08;103520.72;;;5.76;98.54
71974;BME280;59840;52.122;5.404;2023-02-04T03:11:36;103521.69;;;5.75;98.90
71974;BME280;59840;52.122;5.404;2023-02-04T03:14:03;103527.88;;;5.74;98.67
71974;BME280;59840;52.122;5.404;2023-02-04T03:16:31;103527.22;;;5.72;99.39
71974;BME280;59840;52.122;5.404;2023-02-04T03:19:00;103525.56;;;5.71;99.29
71974;BME280;59840;52.122;5.404;2023-02-04T03:21:27;103531.78;;;5.70;98.88
71974;BME280;59840;52.122;5.404;2023-02-04T03:23:54;103522.13;;;5.70;99.22
71974;BME280;59840;52.122;5.404;2023-02-04T03:26:25;103528.47;;;5.68;99.72
71974;BME280;59840;52.122;5.404;2023-02-04T03:28:53;103531.38;;;5.65;99.23
71974;BME280;59840;52.122;5.404;2023-02-04T03:31:19;103542.13;;;5.62;99.51
71974;BME280;59840;52.122;5.404;2023-02-04T03:33:46;103534.56;;;5.59;99.93
71974;BME280;59840;52.122;5.404;2023-02-04T03:36:13;103539.81;;;5.59;99.62
71974;BME280;59840;52.122;5.404;2023-02-04T03:38:39;103533.19;;;5.55;100.00
71974;BME280;59840;52.122;5.404;2023-02-04T03:41:06;103527.59;;;5.50;99.72
71974;BME280;59840;52.122;5.404;2023-02-04T03:43:33;103535.06;;;5.45;100.00
71974;BME280;59840;52.122;5.404;2023-02-04T03:46:00;103542.38;;;5.41;100.00
71974;BME280;59840;52.122;5.404;2023-02-04T03:48:26;103539.75;;;5.41;100.00
71974;BME280;59840;52.122;5.404;2023-02-04T03:50:53;103544.31;;;5.39;100.00
71974;BME280;59840;52.122;5.404;2023-02-04T03:53:19;103542.81;;;5.36;100.00
71974;BME280;59840;52.122;5.404;2023-02-04T03:55:47;103544.59;;;5.36;100.00
71974;BME280;59840;52.122;5.404;2023-02-04T03:58:13;103546.94;;;5.39;100.00
71974;BME280;59840;52.122;5.404;2023-02-04T04:00:40;103541.41;;;5.42;100.00
71974;BME280;59840;52.122;5.404;2023-02-04T04:03:07;103548.28;;;5.43;100.00
71974;BME280;59840;52.122;5.404;2023-02-04T04:05:33;103538.66;;;5.44;100.00
71974;BME280;59840;52.122;5.404;2023-02-04T04:08:00;103536.31;;;5.41;100.00
71974;BME280;59840;52.122;5.404;2023-02-04T04:10:27;103536.31;;;5.41;100.00
71974;BME280;59840;52.122;5.404;2023-02-04T04:12:55;103539.91;;;5.39;100.00
71974;BME280;59840;52.122;5.404;2023-02-04T04:15:21;103530.41;;;5.38;100.00
71974;BME280;59840;52.122;5.404;2023-02-04T04:17:48;103542.66;;;5.38;99.71
71974;BME280;59840;52.122;5.404;2023-02-04T04:20:15;103552.31;;;5.37;99.88
71974;BME280;59840;52.122;5.404;2023-02-04T04:22:41;103559.06;;;5.40;100.00
71974;BME280;59840;52.122;5.404;2023-02-04T04:25:08;103550.91;;;5.43;99.91
71974;BME280;59840;52.122;5.404;2023-02-04T04:27:34;103557.25;;;5.41;99.83
71974;BME280;59840;52.122;5.404;2023-02-04T04:30:01;103552.03;;;5.41;99.62
71974;BME280;59840;52.122;5.404;2023-02-04T04:32:28;103561.66;;;5.40;99.19
71974;BME280;59840;52.122;5.404;2023-02-04T04:34:54;103556.56;;;5.38;99.28
71974;BME280;59840;52.122;5.404;2023-02-04T04:37:21;103554.25;;;5.35;99.38
71974;BME280;59840;52.122;5.404;2023-02-04T04:39:48;103555.50;;;5.31;98.90
71974;BME280;59840;52.122;5.404;2023-02-04T04:42:14;103561.16;;;5.27;99.14
71974;BME280;59840;52.122;5.404;2023-02-04T04:44:41;103565.16;;;5.21;98.98
71974;BME280;59840;52.122;5.404;2023-02-04T04:47:08;103569.75;;;5.19;99.18
71974;BME280;59840;52.122;5.404;2023-02-04T04:49:34;103567.53;;;5.15;99.26
71974;BME280;59840;52.122;5.404;2023-02-04T04:52:00;103569.47;;;5.13;99.54
71974;BME280;59840;52.122;5.404;2023-02-04T04:54:27;103573.19;;;5.10;99.90
71974;BME280;59840;52.122;5.404;2023-02-04T04:56:54;103575.81;;;5.10;99.71
71974;BME280;59840;52.122;5.404;2023-02-04T04:59:20;103570.03;;;5.07;99.48
71974;BME280;59840;52.122;5.404;2023-02-04T05:01:47;103569.34;;;5.04;98.91
71974;BME280;59840;52.122;5.404;2023-02-04T05:04:13;103568.53;;;5.04;99.91
71974;BME280;59840;52.122;5.404;2023-02-04T05:06:40;103559.41;;;5.08;99.89
71974;BME280;59840;52.122;5.404;2023-02-04T05:09:06;103563.56;;;5.11;99.27
71974;BME280;59840;52.122;5.404;2023-02-04T05:11:34;103564.50;;;5.10;99.59
71974;BME280;59840;52.122;5.404;2023-02-04T05:14:01;103557.63;;;5.09;99.61
71974;BME280;59840;52.122;5.404;2023-02-04T05:16:28;103569.75;;;5.10;99.39
71974;BME280;59840;52.122;5.404;2023-02-04T05:18:54;103572.22;;;5.11;99.26
71974;BME280;59840;52.122;5.404;2023-02-04T05:21:21;103576.63;;;5.11;99.37
71974;BME280;59840;52.122;5.404;2023-02-04T05:23:47;103582.97;;;5.08;99.39
71974;BME280;59840;52.122;5.404;2023-02-04T05:26:14;103580.91;;;5.02;99.06
71974;BME280;59840;52.122;5.404;2023-02-04T05:28:55;103578.16;;;4.94;99.12
71974;BME280;59840;52.122;5.404;2023-02-04T05:31:21;103580.22;;;4.90;99.28
71974;BME280;59840;52.122;5.404;2023-02-04T05:33:48;103580.22;;;4.90;99.51
71974;BME280;59840;52.122;5.404;2023-02-04T05:36:15;103588.06;;;4.90;99.74
71974;BME280;59840;52.122;5.404;2023-02-04T05:38:43;103582.72;;;4.92;99.70
71974;BME280;59840;52.122;5.404;2023-02-04T05:41:09;103580.91;;;4.92;99.06
71974;BME280;59840;52.122;5.404;2023-02-04T05:43:36;103579.41;;;4.90;99.19
71974;BME280;59840;52.122;5.404;2023-02-04T05:46:02;103589.88;;;4.90;99.40
71974;BME280;59840;52.122;5.404;2023-02-04T05:48:29;103593.72;;;4.86;99.26
71974;BME280;59840;52.122;5.404;2023-02-04T05:50:56;103588.78;;;4.83;99.84
71974;BME280;59840;52.122;5.404;2023-02-04T05:53:22;103588.78;;;4.83;99.35
71974;BME280;59840;52.122;5.404;2023-02-04T05:55:51;103581.91;;;4.82;99.37
71974;BME280;59840;52.122;5.404;2023-02-04T05:58:17;103586.03;;;4.84;99.53
71974;BME280;59840;52.122;5.404;2023-02-04T06:00:44;103588.34;;;4.87;99.63
71974;BME280;59840;52.122;5.404;2023-02-04T06:03:11;103592.75;;;4.87;99.30
71974;BME280;59840;52.122;5.404;2023-02-04T06:05:39;103590.28;;;4.85;99.52
71974;BME280;59840;52.122;5.404;2023-02-04T06:08:06;103598.97;;;4.86;99.91
71974;BME280;59840;52.122;5.404;2023-02-04T06:10:32;103607.22;;;4.91;99.44
71974;BME280;59840;52.122;5.404;2023-02-04T06:12:59;103613.00;;;4.94;99.16
71974;BME280;59840;52.122;5.404;2023-02-04T06:15:26;103619.63;;;4.98;99.82
71974;BME280;59840;52.122;5.404;2023-02-04T06:17:52;103624.97;;;4.97;99.60
71974;BME280;59840;52.122;5.404;2023-02-04T06:20:19;103621.25;;;4.99;99.35
71974;BME280;59840;52.122;5.404;2023-02-04T06:22:45;103617.81;;;4.99;99.06
71974;BME280;59840;52.122;5.404;2023-02-04T06:25:13;103627.31;;;5.00;99.14
71974;BME280;59840;52.122;5.404;2023-02-04T06:27:39;103632.28;;;5.03;99.87
71974;BME280;59840;52.122;5.404;2023-02-04T06:30:06;103639.16;;;5.04;99.90
71974;BME280;59840;52.122;5.404;2023-02-04T06:32:33;103637.25;;;5.06;99.60
71974;BME280;59840;52.122;5.404;2023-02-04T06:35:00;103653.09;;;5.04;99.63
71974;BME280;59840;52.122;5.404;2023-02-04T06:37:26;103654.03;;;5.03;99.35
71974;BME280;59840;52.122;5.404;2023-02-04T06:39:53;103653.09;;;5.04;99.61
71974;BME280;59840;52.122;5.404;2023-02-04T06:42:20;103656.38;;;5.07;99.46
71974;BME280;59840;52.122;5.404;2023-02-04T06:44:46;103657.91;;;5.09;100.00
71974;BME280;59840;52.122;5.404;2023-02-04T06:47:13;103666.44;;;5.11;100.00
71974;BME280;59840;52.122;5.404;2023-02-04T06:49:39;103674.84;;;5.15;100.00
71974;BME280;59840;52.122;5.404;2023-02-04T06:52:06;103675.53;;;5.17;100.00
71974;BME280;59840;52.122;5.404;2023-02-04T06:54:33;103680.63;;;5.18;100.00
71974;BME280;59840;52.122;5.404;2023-02-04T06:56:59;103688.19;;;5.21;100.00
71974;BME280;59840;52.122;5.404;2023-02-04T06:59:36;103687.22;;;5.22;100.00
71974;BME280;59840;52.122;5.404;2023-02-04T07:02:05;103695.91;;;5.23;100.00
71974;BME280;59840;52.122;5.404;2023-02-04T07:04:33;103694.94;;;5.24;100.00
71974;BME280;59840;52.122;5.404;2023-02-04T07:07:00;103692.31;;;5.24;100.00
71974;BME280;59840;52.122;5.404;2023-02-04T07:09:26;103693.13;;;5.24;100.00
71974;BME280;59840;52.122;5.404;2023-02-04T07:11:53;103696.44;;;5.26;100.00
71974;BME280;59840;52.122;5.404;2023-02-04T07:14:19;103698.09;;;5.27;100.00
71974;BME280;59840;52.122;5.404;2023-02-04T07:16:46;103705.13;;;5.27;100.00
71974;BME280;59840;52.122;5.404;2023-02-04T07:19:13;103705.97;;;5.27;100.00
71974;BME280;59840;52.122;5.404;2023-02-04T07:21:39;103705.00;;;5.28;100.00
71974;BME280;59840;52.122;5.404;2023-02-04T07:24:06;103710.91;;;5.30;100.00
71974;BME280;59840;52.122;5.404;2023-02-04T07:26:32;103701.53;;;5.28;100.00
71974;BME280;59840;52.122;5.404;2023-02-04T07:28:59;103703.19;;;5.29;100.00
71974;BME280;59840;52.122;5.404;2023-02-04T07:31:26;103710.09;;;5.30;100.00
71974;BME280;59840;52.122;5.404;2023-02-04T07:33:53;103709.81;;;5.33;100.00
71974;BME280;59840;52.122;5.404;2023-02-04T07:36:19;103711.59;;;5.32;100.00
71974;BME280;59840;52.122;5.404;2023-02-04T07:38:46;103714.91;;;5.34;100.00
71974;BME280;59840;52.122;5.404;2023-02-04T07:41:12;103716.28;;;5.38;100.00
71974;BME280;59840;52.122;5.404;2023-02-04T07:43:39;103727.47;;;5.41;100.00
71974;BME280;59840;52.122;5.404;2023-02-04T07:46:06;103732.41;;;5.44;100.00
71974;BME280;59840;52.122;5.404;2023-02-04T07:48:32;103733.09;;;5.46;100.00
71974;BME280;59840;52.122;5.404;2023-02-04T07:50:59;103732.84;;;5.49;100.00
71974;BME280;59840;52.122;5.404;2023-02-04T07:53:25;103733.06;;;5.55;100.00
71974;BME280;59840;52.122;5.404;2023-02-04T07:55:52;103736.09;;;5.60;100.00
71974;BME280;59840;52.122;5.404;2023-02-04T07:58:18;103736.50;;;5.65;100.00
71974;BME280;59840;52.122;5.404;2023-02-04T08:00:45;103737.75;;;5.71;99.69
71974;BME280;59840;52.122;5.404;2023-02-04T08:03:11;103753.88;;;5.76;100.00
71974;BME280;59840;52.122;5.404;2023-02-04T08:05:38;103752.63;;;5.80;100.00
71974;BME280;59840;52.122;5.404;2023-02-04T08:08:04;103749.72;;;5.83;100.00
71974;BME280;59840;52.122;5.404;2023-02-04T08:10:31;103754.00;;;5.84;100.00
71974;BME280;59840;52.122;5.404;2023-02-04T08:12:58;103755.38;;;5.88;100.00
71974;BME280;59840;52.122;5.404;2023-02-04T08:15:24;103756.75;;;5.92;100.00
71974;BME280;59840;52.122;5.404;2023-02-04T08:17:51;103765.31;;;5.94;100.00
71974;BME280;59840;52.122;5.404;2023-02-04T08:20:17;103763.09;;;5.99;100.00
71974;BME280;59840;52.122;5.404;2023-02-04T08:22:45;103766.94;;;6.05;100.00
71974;BME280;59840;52.122;5.404;2023-02-04T08:25:11;103770.78;;;6.11;99.59
71974;BME280;59840;52.122;5.404;2023-02-04T08:27:38;103764.97;;;6.17;100.00
71974;BME280;59840;52.122;5.404;2023-02-04T08:30:05;103768.00;;;6.22;99.49
71974;BME280;59840;52.122;5.404;2023-02-04T08:32:32;103763.28;;;6.25;99.37
71974;BME280;59840;52.122;5.404;2023-02-04T08:34:59;103771.69;;;6.29;99.58
71974;BME280;59840;52.122;5.404;2023-02-04T08:37:26;103780.91;;;6.33;99.19
71974;BME280;59840;52.122;5.404;2023-02-04T08:39:52;103783.13;;;6.37;99.28
71974;BME280;59840;52.122;5.404;2023-02-04T08:42:19;103788.75;;;6.43;99.05
71974;BME280;59840;52.122;5.404;2023-02-04T08:44:46;103787.22;;;6.50;99.19
71974;BME280;59840;52.122;5.404;2023-02-04T08:47:12;103789.13;;;6.57;99.08
71974;BME280;59840;52.122;5.404;2023-02-04T08:49:39;103784.91;;;6.64;99.01
71974;BME280;59840;52.122;5.404;2023-02-04T08:52:06;103787.66;;;6.72;98.63
71974;BME280;59840;52.122;5.404;2023-02-04T08:54:33;103794.66;;;6.82;98.63
71974;BME280;59840;52.122;5.404;2023-02-04T08:57:01;103795.72;;;6.89;98.37
71974;BME280;59840;52.122;5.404;2023-02-04T08:59:28;103796.75;;;6.96;98.13
71974;BME280;59840;52.122;5.404;2023-02-04T09:01:54;103795.19;;;7.03;98.55
71974;BME280;59840;52.122;5.404;2023-02-04T09:04:22;103795.19;;;7.03;98.22
71974;BME280;59840;52.122;5.404;2023-02-04T09:06:49;103800.28;;;7.04;97.70
71974;BME280;59840;52.122;5.404;2023-02-04T09:09:16;103803.75;;;7.05;97.80
71974;BME280;59840;52.122;5.404;2023-02-04T09:11:42;103795.19;;;7.03;97.85
71974;BME280;59840;52.122;5.404;2023-02-04T09:14:09;103802.63;;;7.07;97.94
71974;BME280;59840;52.122;5.404;2023-02-04T09:16:35;103803.16;;;7.11;97.73
71974;BME280;59840;52.122;5.404;2023-02-04T09:19:02;103800.91;;;7.16;97.42
71974;BME280;59840;52.122;5.404;2023-02-04T09:21:30;103801.31;;;7.21;97.35
71974;BME280;59840;52.122;5.404;2023-02-04T09:23:56;103808.59;;;7.27;97.41
71974;BME280;59840;52.122;5.404;2023-02-04T09:26:23;103804.38;;;7.34;97.36
71974;BME280;59840;52.122;5.404;2023-02-04T09:28:50;103814.97;;;7.43;97.00
71974;BME280;59840;52.122;5.404;2023-02-04T09:31:16;103811.97;;;7.55;96.51
71974;BME280;59840;52.122;5.404;2023-02-04T09:33:43;103803.00;;;7.66;96.01
71974;BME280;59840;52.122;5.404;2023-02-04T09:36:09;103808.47;;;7.72;95.88
71974;BME280;59840;52.122;5.404;2023-02-04T09:38:36;103804.34;;;7.70;95.34
71974;BME280;59840;52.122;5.404;2023-02-04T09:41:06;103805.63;;;7.66;95.65
71974;BME280;59840;52.122;5.404;2023-02-04T09:43:35;103810.13;;;7.73;95.22
71974;BME280;59840;52.122;5.404;2023-02-04T09:46:04;103809.81;;;7.77;94.74
71974;BME280;59840;52.122;5.404;2023-02-04T09:48:31;103807.41;;;7.83;94.72
71974;BME280;59840;52.122;5.404;2023-02-04T09:51:03;103808.97;;;7.94;94.31
71974;BME280;59840;52.122;5.404;2023-02-04T09:53:31;103813.97;;;8.05;92.81
71974;BME280;59840;52.122;5.404;2023-02-04T09:55:58;103808.59;;;8.15;93.07
71974;BME280;59840;52.122;5.404;2023-02-04T09:58:28;103812.72;;;8.17;92.33
71974;BME280;59840;52.122;5.404;2023-02-04T10:01:13;103815.47;;;8.33;91.88
71974;BME280;59840;52.122;5.404;2023-02-04T10:03:41;103819.03;;;8.50;91.02
71974;BME280;59840;52.122;5.404;2023-02-04T10:06:17;103825.31;;;8.57;88.84
71974;BME280;59840;52.122;5.404;2023-02-04T10:08:45;103828.31;;;8.62;87.90
71974;BME280;59840;52.122;5.404;2023-02-04T10:11:13;103827.34;;;8.71;86.40
71974;BME280;59840;52.122;5.404;2023-02-04T10:13:46;103830.94;;;8.62;86.70
71974;BME280;59840;52.122;5.404;2023-02-04T10:16:24;103828.00;;;8.65;86.80
71974;BME280;59840;52.122;5.404;2023-02-04T10:19:00;103831.25;;;8.67;87.07
71974;BME280;59840;52.122;5.404;2023-02-04T10:21:33;103826.00;;;8.67;86.69
71974;BME280;59840;52.122;5.404;2023-02-04T10:24:05;103832.25;;;8.66;87.21
71974;BME280;59840;52.122;5.404;2023-02-04T10:26:32;103833.78;;;8.77;86.79
71974;BME280;59840;52.122;5.404;2023-02-04T10:29:02;103828.34;;;8.79;85.92
71974;BME280;59840;52.122;5.404;2023-02-04T10:34:34;103832.31;;;8.83;85.93
71974;BME280;59840;52.122;5.404;2023-02-04T10:37:21;103832.53;;;8.97;86.37
71974;BME280;59840;52.122;5.404;2023-02-04T10:39:48;103832.25;;;9.17;85.03
71974;BME280;59840;52.122;5.404;2023-02-04T10:42:23;103831.97;;;9.28;84.81
71974;BME280;59840;52.122;5.404;2023-02-04T10:44:51;103830.97;;;9.45;83.94
71974;BME280;59840;52.122;5.404;2023-02-04T10:47:20;103832.13;;;9.43;82.99
71974;BME280;59840;52.122;5.404;2023-02-04T10:49:52;103834.91;;;9.41;83.11
71974;BME280;59840;52.122;5.404;2023-02-04T10:52:21;103834.59;;;9.44;82.33
71974;BME280;59840;52.122;5.404;2023-02-04T10:54:49;103833.94;;;9.50;82.47
71974;BME280;59840;52.122;5.404;2023-02-04T10:57:26;103832.94;;;9.43;82.53
71974;BME280;59840;52.122;5.404;2023-02-04T10:59:58;103826.50;;;9.37;82.36
71974;BME280;59840;52.122;5.404;2023-02-04T11:02:39;103833.44;;;9.71;82.99
71974;BME280;59840;52.122;5.404;2023-02-04T11:05:15;103831.63;;;9.88;82.31
71974;BME280;59840;52.122;5.404;2023-02-04T11:07:44;103834.47;;;9.62;80.20
71974;BME280;59840;52.122;5.404;2023-02-04T11:10:14;103841.69;;;9.52;81.70
71974;BME280;59840;52.122;5.404;2023-02-04T11:13:01;103835.75;;;9.74;81.01
71974;BME280;59840;52.122;5.404;2023-02-04T11:18:42;103836.41;;;9.84;80.15
71974;BME280;59840;52.122;5.404;2023-02-04T11:24:23;103830.84;;;9.63;79.40
71974;BME280;59840;52.122;5.404;2023-02-04T11:26:51;103832.16;;;9.59;78.79
71974;BME280;59840;52.122;5.404;2023-02-04T11:29:31;103825.22;;;9.50;78.01
71974;BME280;59840;52.122;5.404;2023-02-04T11:32:06;103823.22;;;9.44;77.39
71974;BME280;59840;52.122;5.404;2023-02-04T11:34:51;103828.50;;;9.44;77.86
71974;BME280;59840;52.122;5.404;2023-02-04T11:37:33;103830.47;;;9.41;78.47
71974;BME280;59840;52.122;5.404;2023-02-04T11:40:00;103824.88;;;9.36;78.09
71974;BME280;59840;52.122;5.404;2023-02-04T11:42:41;103826.66;;;9.36;77.99
71974;BME280;59840;52.122;5.404;2023-02-04T11:45:20;103815.97;;;9.29;79.05
71974;BME280;59840;52.122;5.404;2023-02-04T11:47:49;103816.28;;;9.18;78.16
71974;BME280;59840;52.122;5.404;2023-02-04T11:50:24;103823.38;;;9.18;79.01
71974;BME280;59840;52.122;5.404;2023-02-04T11:52:56;103824.53;;;9.23;79.93
71974;BME280;59840;52.122;5.404;2023-02-04T11:55:23;103819.44;;;9.38;77.98
71974;BME280;59840;52.122;5.404;2023-02-04T11:57:52;103821.75;;;9.41;78.83
71974;BME280;59840;52.122;5.404;2023-02-04T12:00:22;103823.25;;;9.35;79.07
71974;BME280;59840;52.122;5.404;2023-02-04T12:03:03;103819.59;;;9.36;78.66
71974;BME280;59840;52.122;5.404;2023-02-04T12:05:43;103821.56;;;9.43;78.29
71974;BME280;59840;52.122;5.404;2023-02-04T12:08:22;103819.47;;;9.54;78.67
71974;BME280;59840;52.122;5.404;2023-02-04T12:13:48;103829.19;;;9.70;76.19
71974;BME280;59840;52.122;5.404;2023-02-04T12:16:15;103829.53;;;9.67;75.21
71974;BME280;59840;52.122;5.404;2023-02-04T12:18:42;103834.13;;;9.57;74.76
71974;BME280;59840;52.122;5.404;2023-02-04T12:21:08;103829.19;;;9.62;75.26
71974;BME280;59840;52.122;5.404;2023-02-04T12:23:35;103839.09;;;9.68;74.64
71974;BME280;59840;52.122;5.404;2023-02-04T12:26:01;103837.72;;;9.72;75.27
71974;BME280;59840;52.122;5.404;2023-02-04T12:28:28;103837.28;;;9.68;75.51
71974;BME280;59840;52.122;5.404;2023-02-04T12:30:55;103832.00;;;9.68;75.61
71974;BME280;59840;52.122;5.404;2023-02-04T12:33:22;103842.03;;;9.73;75.28
71974;BME280;59840;52.122;5.404;2023-02-04T12:35:49;103834.09;;;9.73;75.31
71974;BME280;59840;52.122;5.404;2023-02-04T12:38:15;103842.03;;;9.81;75.84
71974;BME280;59840;52.122;5.404;2023-02-04T12:40:44;103837.25;;;9.85;74.62
71974;BME280;59840;52.122;5.404;2023-02-04T12:43:11;103831.31;;;9.91;74.57
71974;BME280;59840;52.122;5.404;2023-02-04T12:45:37;103828.84;;;9.89;74.72
71974;BME280;59840;52.122;5.404;2023-02-04T12:48:05;103834.44;;;9.94;73.38
71974;BME280;59840;52.122;5.404;2023-02-04T12:50:31;103828.34;;;10.02;75.23
71974;BME280;59840;52.122;5.404;2023-02-04T12:52:58;103824.19;;;10.07;73.63
71974;BME280;59840;52.122;5.404;2023-02-04T12:55:26;103824.19;;;10.07;74.36
71974;BME280;59840;52.122;5.404;2023-02-04T12:57:53;103833.09;;;10.23;74.06
71974;BME280;59840;52.122;5.404;2023-02-04T13:00:22;103828.16;;;10.20;73.92
71974;BME280;59840;52.122;5.404;2023-02-04T13:02:49;103826.84;;;10.24;73.86
71974;BME280;59840;52.122;5.404;2023-02-04T13:05:16;103819.41;;;10.19;73.18
71974;BME280;59840;52.122;5.404;2023-02-04T13:07:42;103827.81;;;10.15;74.23
71974;BME280;59840;52.122;5.404;2023-02-04T13:10:10;103816.91;;;10.18;73.91
71974;BME280;59840;52.122;5.404;2023-02-04T13:12:37;103813.31;;;10.27;73.58
71974;BME280;59840;52.122;5.404;2023-02-04T13:15:05;103812.63;;;10.33;74.39